sensor_id;sensor_type;location;lat;lon;timestamp;P1;durP1;ratioP1;P2;durP2;ratioP2
37647;SDS011;23490;53.656;10.076;2023-02-28T00:01:06;5.65;;;2.70;;
37647;SDS011;23490;53.656;10.076;2023-02-28T00:03:31;7.53;;;3.58;;
37647;SDS011;23490;53.656;10.076;2023-02-28T00:06:00;9.60;;;3.28;;
37647;SDS011;23490;53.656;10.076;2023-02-28T00:08:27;10.73;;;3.03;;
37647;SDS011;23490;53.656;10.076;2023-02-28T00:10:52;8.77;;;3.30;;
37647;SDS011;23490;53.656;10.076;2023-02-28T00:13:18;8.90;;;3.38;;
37647;SDS011;23490;53.656;10.076;2023-02-28T00:15:43;9.50;;;3.25;;
37647;SDS011;23490;53.656;10.076;2023-02-28T00:18:10;9.48;;;2.88;;
37647;SDS011;23490;53.656;10.076;2023-02-28T00:20:36;6.72;;;2.50;;
37647;SDS011;23490;53.656;10.076;2023-02-28T00:23:02;6.53;;;2.78;;
37647;SDS011;23490;53.656;10.076;2023-02-28T00:25:28;7.47;;;3.30;;
37647;SDS011;23490;53.656;10.076;2023-02-28T00:27:53;7.22;;;2.95;;
37647;SDS011;23490;53.656;10.076;2023-02-28T00:30:19;7.78;;;3.40;;
37647;SDS011;23490;53.656;10.076;2023-02-28T00:32:47;7.25;;;2.80;;
37647;SDS011;23490;53.656;10.076;2023-02-28T00:35:13;7.20;;;2.75;;
37647;SDS011;23490;53.656;10.076;2023-02-28T00:37:39;7.63;;;2.72;;
37647;SDS011;23490;53.656;10.076;2023-02-28T00:40:05;7.72;;;3.17;;
37647;SDS011;23490;53.656;10.076;2023-02-28T00:42:32;7.80;;;2.58;;
37647;SDS011;23490;53.656;10.076;2023-02-28T00:44:59;5.80;;;3.10;;
37647;SDS011;23490;53.656;10.076;2023-02-28T00:47:25;7.15;;;2.50;;
37647;SDS011;23490;53.656;10.076;2023-02-28T00:49:50;6.30;;;2.92;;
37647;SDS011;23490;53.656;10.076;2023-02-28T00:52:16;10.43;;;2.95;;
37647;SDS011;23490;53.656;10.076;2023-02-28T00:54:41;8.57;;;2.97;;
37647;SDS011;23490;53.656;10.076;2023-02-28T00:57:07;6.43;;;2.97;;
37647;SDS011;23490;53.656;10.076;2023-02-28T00:59:32;7.00;;;2.92;;
37647;SDS011;23490;53.656;10.076;2023-02-28T01:01:57;5.00;;;2.50;;
37647;SDS011;23490;53.656;10.076;2023-02-28T01:04:23;7.50;;;3.05;;
37647;SDS011;23490;53.656;10.076;2023-02-28T01:06:48;7.38;;;2.65;;
37647;SDS011;23490;53.656;10.076;2023-02-28T01:09:13;8.90;;;2.90;;
37647;SDS011;23490;53.656;10.076;2023-02-28T01:11:39;6.72;;;2.53;;
37647;SDS011;23490;53.656;10.076;2023-02-28T01:14:06;6.38;;;2.47;;
37647;SDS011;23490;53.656;10.076;2023-02-28T01:16:33;5.82;;;2.30;;
37647;SDS011;23490;53.656;10.076;2023-02-28T01:18:58;9.93;;;3.50;;
37647;SDS011;23490;53.656;10.076;2023-02-28T01:21:24;5.88;;;2.60;;
37647;SDS011;23490;53.656;10.076;2023-02-28T01:23:49;9.00;;;2.97;;
37647;SDS011;23490;53.656;10.076;2023-02-28T01:26:16;7.82;;;3.00;;
37647;SDS011;23490;53.656;10.076;2023-02-28T01:28:43;7.00;;;3.10;;
37647;SDS011;23490;53.656;10.076;2023-02-28T01:31:09;8.45;;;3.28;;
37647;SDS011;23490;53.656;10.076;2023-02-28T01:33:35;7.13;;;3.65;;
37647;SDS011;23490;53.656;10.076;2023-02-28T01:36:01;8.18;;;2.83;;
37647;SDS011;23490;53.656;10.076;2023-02-28T01:38:29;8.80;;;2.90;;
37647;SDS011;23490;53.656;10.076;2023-02-28T01:40:54;6.47;;;2.80;;
37647;SDS011;23490;53.656;10.076;2023-02-28T01:43:27;7.43;;;3.15;;
37647;SDS011;23490;53.656;10.076;2023-02-28T01:45:53;6.72;;;2.90;;
37647;SDS011;23490;53.656;10.076;2023-02-28T01:48:21;9.07;;;2.80;;
37647;SDS011;23490;53.656;10.076;2023-02-28T01:50:52;12.85;;;4.22;;
37647;SDS011;23490;53.656;10.076;2023-02-28T01:53:21;8.65;;;3.13;;
37647;SDS011;23490;53.656;10.076;2023-02-28T01:55:55;7.40;;;2.65;;
37647;SDS011;23490;53.656;10.076;2023-02-28T01:58:21;7.55;;;3.15;;
37647;SDS011;23490;53.656;10.076;2023-02-28T02:00:47;7.70;;;2.90;;
37647;SDS011;23490;53.656;10.076;2023-02-28T02:03:14;7.30;;;2.78;;
37647;SDS011;23490;53.656;10.076;2023-02-28T02:05:44;6.93;;;2.95;;
37647;SDS011;23490;53.656;10.076;2023-02-28T02:08:23;7.72;;;3.40;;
37647;SDS011;23490;53.656;10.076;2023-02-28T02:10:52;10.75;;;3.92;;
37647;SDS011;23490;53.656;10.076;2023-02-28T02:29:48;9.98;;;4.13;;
37647;SDS011;23490;53.656;10.076;2023-02-28T02:35:14;9.80;;;3.70;;
37647;SDS011;23490;53.656;10.076;2023-02-28T02:43:31;9.55;;;4.13;;
37647;SDS011;23490;53.656;10.076;2023-02-28T02:46:14;8.07;;;3.28;;
37647;SDS011;23490;53.656;10.076;2023-02-28T02:48:45;10.98;;;3.50;;
37647;SDS011;23490;53.656;10.076;2023-02-28T02:51:19;10.73;;;3.72;;
37647;SDS011;23490;53.656;10.076;2023-02-28T02:53:48;11.40;;;3.92;;
37647;SDS011;23490;53.656;10.076;2023-02-28T02:56:19;10.30;;;3.67;;
37647;SDS011;23490;53.656;10.076;2023-02-28T02:58:49;10.23;;;3.53;;
37647;SDS011;23490;53.656;10.076;2023-02-28T03:01:19;9.23;;;3.80;;
37647;SDS011;23490;53.656;10.076;2023-02-28T03:03:53;8.55;;;3.67;;
37647;SDS011;23490;53.656;10.076;2023-02-28T03:06:21;8.82;;;3.67;;
37647;SDS011;23490;53.656;10.076;2023-02-28T03:08:46;11.00;;;4.18;;
37647;SDS011;23490;53.656;10.076;2023-02-28T03:11:12;11.43;;;4.25;;
37647;SDS011;23490;53.656;10.076;2023-02-28T03:13:47;9.20;;;3.65;;
37647;SDS011;23490;53.656;10.076;2023-02-28T03:22:01;9.32;;;3.78;;
37647;SDS011;23490;53.656;10.076;2023-02-28T03:24:47;7.22;;;3.50;;
37647;SDS011;23490;53.656;10.076;2023-02-28T03:27:27;10.50;;;3.67;;
37647;SDS011;23490;53.656;10.076;2023-02-28T03:30:06;8.02;;;3.65;;
37647;SDS011;23490;53.656;10.076;2023-02-28T03:32:40;9.73;;;3.55;;
37647;SDS011;23490;53.656;10.076;2023-02-28T03:35:20;7.88;;;3.22;;
37647;SDS011;23490;53.656;10.076;2023-02-28T03:37:53;10.45;;;3.70;;
37647;SDS011;23490;53.656;10.076;2023-02-28T03:40:30;7.97;;;3.53;;
37647;SDS011;23490;53.656;10.076;2023-02-28T03:43:07;10.32;;;3.20;;
37647;SDS011;23490;53.656;10.076;2023-02-28T03:45:38;10.38;;;4.00;;
37647;SDS011;23490;53.656;10.076;2023-02-28T03:48:07;11.18;;;4.80;;
37647;SDS011;23490;53.656;10.076;2023-02-28T03:50:44;9.05;;;3.90;;
37647;SDS011;23490;53.656;10.076;2023-02-28T03:53:16;9.43;;;3.25;;
37647;SDS011;23490;53.656;10.076;2023-02-28T03:55:48;12.45;;;3.65;;
37647;SDS011;23490;53.656;10.076;2023-02-28T03:58:24;6.63;;;3.08;;
37647;SDS011;23490;53.656;10.076;2023-02-28T04:00:56;9.73;;;4.00;;
37647;SDS011;23490;53.656;10.076;2023-02-28T04:03:34;10.50;;;4.00;;
37647;SDS011;23490;53.656;10.076;2023-02-28T04:06:00;9.02;;;3.53;;
37647;SDS011;23490;53.656;10.076;2023-02-28T04:08:26;7.63;;;3.20;;
37647;SDS011;23490;53.656;10.076;2023-02-28T04:10:56;10.85;;;3.80;;
37647;SDS011;23490;53.656;10.076;2023-02-28T04:13:31;10.95;;;3.58;;
37647;SDS011;23490;53.656;10.076;2023-02-28T04:15:57;7.95;;;3.25;;
37647;SDS011;23490;53.656;10.076;2023-02-28T04:18:22;10.52;;;3.55;;
37647;SDS011;23490;53.656;10.076;2023-02-28T04:20:47;8.98;;;2.85;;
37647;SDS011;23490;53.656;10.076;2023-02-28T04:23:13;8.95;;;3.10;;
37647;SDS011;23490;53.656;10.076;2023-02-28T04:25:38;8.05;;;3.60;;
37647;SDS011;23490;53.656;10.076;2023-02-28T04:28:05;8.65;;;3.53;;
37647;SDS011;23490;53.656;10.076;2023-02-28T04:30:30;7.88;;;3.42;;
37647;SDS011;23490;53.656;10.076;2023-02-28T04:32:57;8.55;;;4.25;;
37647;SDS011;23490;53.656;10.076;2023-02-28T04:35:23;12.82;;;3.63;;
37647;SDS011;23490;53.656;10.076;2023-02-28T04:37:49;9.07;;;3.42;;
37647;SDS011;23490;53.656;10.076;2023-02-28T04:40:14;8.85;;;3.13;;
37647;SDS011;23490;53.656;10.076;2023-02-28T04:42:40;7.80;;;2.92;;
37647;SDS011;23490;53.656;10.076;2023-02-28T04:45:05;8.82;;;3.22;;
37647;SDS011;23490;53.656;10.076;2023-02-28T04:47:31;9.88;;;2.85;;
37647;SDS011;23490;53.656;10.076;2023-02-28T04:49:56;7.43;;;3.00;;
37647;SDS011;23490;53.656;10.076;2023-02-28T04:52:22;6.78;;;2.88;;
37647;SDS011;23490;53.656;10.076;2023-02-28T04:54:47;6.82;;;2.90;;
37647;SDS011;23490;53.656;10.076;2023-02-28T04:57:13;7.70;;;3.08;;
37647;SDS011;23490;53.656;10.076;2023-02-28T04:59:38;8.02;;;2.97;;
37647;SDS011;23490;53.656;10.076;2023-02-28T05:02:03;7.90;;;3.08;;
37647;SDS011;23490;53.656;10.076;2023-02-28T05:04:32;8.23;;;3.50;;
37647;SDS011;23490;53.656;10.076;2023-02-28T05:06:59;9.20;;;3.03;;
37647;SDS011;23490;53.656;10.076;2023-02-28T05:09:25;6.93;;;3.08;;
37647;SDS011;23490;53.656;10.076;2023-02-28T05:11:50;7.80;;;3.08;;
37647;SDS011;23490;53.656;10.076;2023-02-28T05:14:16;9.15;;;3.50;;
37647;SDS011;23490;53.656;10.076;2023-02-28T05:16:41;10.57;;;3.75;;
37647;SDS011;23490;53.656;10.076;2023-02-28T05:19:07;6.90;;;2.95;;
37647;SDS011;23490;53.656;10.076;2023-02-28T05:21:33;9.15;;;2.97;;
37647;SDS011;23490;53.656;10.076;2023-02-28T05:24:02;6.45;;;2.83;;
37647;SDS011;23490;53.656;10.076;2023-02-28T05:26:29;9.38;;;3.55;;
37647;SDS011;23490;53.656;10.076;2023-02-28T05:28:56;10.38;;;3.03;;
37647;SDS011;23490;53.656;10.076;2023-02-28T05:31:22;9.05;;;3.35;;
37647;SDS011;23490;53.656;10.076;2023-02-28T05:33:47;8.43;;;3.55;;
37647;SDS011;23490;53.656;10.076;2023-02-28T05:36:13;9.98;;;3.47;;
37647;SDS011;23490;53.656;10.076;2023-02-28T05:38:38;7.75;;;2.90;;
37647;SDS011;23490;53.656;10.076;2023-02-28T05:41:05;7.97;;;2.85;;
37647;SDS011;23490;53.656;10.076;2023-02-28T05:43:32;9.93;;;3.53;;
37647;SDS011;23490;53.656;10.076;2023-02-28T05:45:57;8.85;;;3.28;;
37647;SDS011;23490;53.656;10.076;2023-02-28T05:48:23;7.00;;;3.17;;
37647;SDS011;23490;53.656;10.076;2023-02-28T05:50:48;7.88;;;3.30;;
37647;SDS011;23490;53.656;10.076;2023-02-28T05:53:13;6.60;;;2.60;;
37647;SDS011;23490;53.656;10.076;2023-02-28T05:55:38;6.70;;;3.22;;
37647;SDS011;23490;53.656;10.076;2023-02-28T05:58:06;10.52;;;3.50;;
37647;SDS011;23490;53.656;10.076;2023-02-28T06:00:31;7.57;;;3.63;;
37647;SDS011;23490;53.656;10.076;2023-02-28T06:02:56;7.03;;;3.10;;
37647;SDS011;23490;53.656;10.076;2023-02-28T06:05:24;9.60;;;3.63;;
37647;SDS011;23490;53.656;10.076;2023-02-28T06:07:50;8.48;;;2.92;;
37647;SDS011;23490;53.656;10.076;2023-02-28T06:10:15;6.63;;;3.10;;
37647;SDS011;23490;53.656;10.076;2023-02-28T06:12:41;8.00;;;3.53;;
37647;SDS011;23490;53.656;10.076;2023-02-28T06:15:11;13.13;;;3.38;;
37647;SDS011;23490;53.656;10.076;2023-02-28T06:17:38;7.53;;;3.00;;
37647;SDS011;23490;53.656;10.076;2023-02-28T06:20:04;13.15;;;4.03;;
37647;SDS011;23490;53.656;10.076;2023-02-28T06:22:30;7.75;;;2.90;;
37647;SDS011;23490;53.656;10.076;2023-02-28T06:24:56;9.70;;;3.25;;
37647;SDS011;23490;53.656;10.076;2023-02-28T06:27:22;8.07;;;3.45;;
37647;SDS011;23490;53.656;10.076;2023-02-28T06:29:48;10.48;;;3.72;;
37647;SDS011;23490;53.656;10.076;2023-02-28T06:32:13;6.35;;;3.28;;
37647;SDS011;23490;53.656;10.076;2023-02-28T06:34:38;8.43;;;3.80;;
37647;SDS011;23490;53.656;10.076;2023-02-28T06:37:04;6.47;;;3.28;;
37647;SDS011;23490;53.656;10.076;2023-02-28T06:39:30;9.07;;;3.92;;
37647;SDS011;23490;53.656;10.076;2023-02-28T06:41:56;10.77;;;3.55;;
37647;SDS011;23490;53.656;10.076;2023-02-28T06:44:21;6.97;;;3.30;;
37647;SDS011;23490;53.656;10.076;2023-02-28T06:46:48;10.90;;;3.78;;
37647;SDS011;23490;53.656;10.076;2023-02-28T06:49:13;10.43;;;3.20;;
37647;SDS011;23490;53.656;10.076;2023-02-28T06:51:40;8.27;;;3.83;;
37647;SDS011;23490;53.656;10.076;2023-02-28T06:54:06;10.00;;;3.70;;
37647;SDS011;23490;53.656;10.076;2023-02-28T06:56:35;7.28;;;3.67;;
37647;SDS011;23490;53.656;10.076;2023-02-28T06:59:00;9.32;;;3.83;;
37647;SDS011;23490;53.656;10.076;2023-02-28T07:01:26;10.88;;;3.40;;
37647;SDS011;23490;53.656;10.076;2023-02-28T07:03:53;9.70;;;3.42;;
37647;SDS011;23490;53.656;10.076;2023-02-28T07:06:22;8.35;;;3.85;;
37647;SDS011;23490;53.656;10.076;2023-02-28T07:08:49;9.27;;;4.30;;
37647;SDS011;23490;53.656;10.076;2023-02-28T07:11:17;7.65;;;3.45;;
37647;SDS011;23490;53.656;10.076;2023-02-28T07:13:42;9.55;;;4.05;;
37647;SDS011;23490;53.656;10.076;2023-02-28T07:16:09;7.72;;;3.78;;
37647;SDS011;23490;53.656;10.076;2023-02-28T07:18:36;11.93;;;4.25;;
37647;SDS011;23490;53.656;10.076;2023-02-28T07:21:02;10.32;;;3.92;;
37647;SDS011;23490;53.656;10.076;2023-02-28T07:23:32;8.70;;;4.22;;
37647;SDS011;23490;53.656;10.076;2023-02-28T07:25:57;9.52;;;3.88;;
37647;SDS011;23490;53.656;10.076;2023-02-28T07:28:23;9.43;;;3.90;;
37647;SDS011;23490;53.656;10.076;2023-02-28T07:30:49;12.65;;;4.97;;
37647;SDS011;23490;53.656;10.076;2023-02-28T07:33:14;10.80;;;4.95;;
37647;SDS011;23490;53.656;10.076;2023-02-28T07:35:40;6.90;;;3.85;;
37647;SDS011;23490;53.656;10.076;2023-02-28T07:38:05;11.07;;;4.47;;
37647;SDS011;23490;53.656;10.076;2023-02-28T07:40:32;10.65;;;4.80;;
37647;SDS011;23490;53.656;10.076;2023-02-28T07:42:58;11.65;;;5.00;;
37647;SDS011;23490;53.656;10.076;2023-02-28T07:45:25;12.13;;;4.28;;
37647;SDS011;23490;53.656;10.076;2023-02-28T07:47:50;9.73;;;5.68;;
37647;SDS011;23490;53.656;10.076;2023-02-28T07:50:16;12.60;;;4.72;;
37647;SDS011;23490;53.656;10.076;2023-02-28T07:52:41;10.55;;;4.82;;
37647;SDS011;23490;53.656;10.076;2023-02-28T07:55:08;10.05;;;4.13;;
37647;SDS011;23490;53.656;10.076;2023-02-28T07:57:34;11.57;;;4.93;;
37647;SDS011;23490;53.656;10.076;2023-02-28T07:59:59;10.95;;;4.88;;
37647;SDS011;23490;53.656;10.076;2023-02-28T08:02:25;12.40;;;4.97;;
37647;SDS011;23490;53.656;10.076;2023-02-28T08:04:50;12.98;;;4.80;;
37647;SDS011;23490;53.656;10.076;2023-02-28T08:07:16;11.35;;;4.50;;
37647;SDS011;23490;53.656;10.076;2023-02-28T08:09:42;11.85;;;4.68;;
37647;SDS011;23490;53.656;10.076;2023-02-28T08:12:08;12.77;;;4.70;;
37647;SDS011;23490;53.656;10.076;2023-02-28T08:14:35;8.75;;;4.30;;
37647;SDS011;23490;53.656;10.076;2023-02-28T08:17:01;11.13;;;4.78;;
37647;SDS011;23490;53.656;10.076;2023-02-28T08:19:26;10.85;;;4.40;;
37647;SDS011;23490;53.656;10.076;2023-02-28T08:21:53;10.23;;;3.97;;
37647;SDS011;23490;53.656;10.076;2023-02-28T08:24:18;14.25;;;4.00;;
37647;SDS011;23490;53.656;10.076;2023-02-28T08:26:43;10.45;;;3.70;;
37647;SDS011;23490;53.656;10.076;2023-02-28T08:29:09;7.45;;;3.63;;
37647;SDS011;23490;53.656;10.076;2023-02-28T08:31:34;10.38;;;3.88;;
37647;SDS011;23490;53.656;10.076;2023-02-28T08:34:04;10.15;;;3.78;;
37647;SDS011;23490;53.656;10.076;2023-02-28T08:36:30;7.68;;;3.55;;
37647;SDS011;23490;53.656;10.076;2023-02-28T08:38:56;7.88;;;4.07;;
37647;SDS011;23490;53.656;10.076;2023-02-28T08:41:21;6.72;;;3.97;;
37647;SDS011;23490;53.656;10.076;2023-02-28T08:43:47;6.35;;;3.20;;
37647;SDS011;23490;53.656;10.076;2023-02-28T08:46:12;7.68;;;3.78;;
37647;SDS011;23490;53.656;10.076;2023-02-28T08:48:38;8.82;;;3.63;;
37647;SDS011;23490;53.656;10.076;2023-02-28T08:51:08;8.65;;;3.65;;
37647;SDS011;23490;53.656;10.076;2023-02-28T08:53:38;7.65;;;3.28;;
37647;SDS011;23490;53.656;10.076;2023-02-28T08:56:05;6.60;;;3.30;;
37647;SDS011;23490;53.656;10.076;2023-02-28T08:58:33;6.82;;;3.20;;
37647;SDS011;23490;53.656;10.076;2023-02-28T09:00:59;7.22;;;3.05;;
37647;SDS011;23490;53.656;10.076;2023-02-28T09:03:24;8.98;;;3.10;;
37647;SDS011;23490;53.656;10.076;2023-02-28T09:05:56;9.52;;;3.25;;
37647;SDS011;23490;53.656;10.076;2023-02-28T09:08:23;8.82;;;2.15;;
37647;SDS011;23490;53.656;10.076;2023-02-28T09:10:50;4.95;;;1.90;;
37647;SDS011;23490;53.656;10.076;2023-02-28T09:13:17;8.57;;;2.10;;
37647;SDS011;23490;53.656;10.076;2023-02-28T09:15:43;5.32;;;2.55;;
37647;SDS011;23490;53.656;10.076;2023-02-28T09:18:08;5.45;;;2.05;;
37647;SDS011;23490;53.656;10.076;2023-02-28T09:20:33;4.03;;;1.95;;
37647;SDS011;23490;53.656;10.076;2023-02-28T09:23:02;7.07;;;2.70;;
37647;SDS011;23490;53.656;10.076;2023-02-28T09:25:27;5.50;;;2.10;;
37647;SDS011;23490;53.656;10.076;2023-02-28T09:27:53;4.38;;;2.05;;
37647;SDS011;23490;53.656;10.076;2023-02-28T09:30:18;7.53;;;2.67;;
37647;SDS011;23490;53.656;10.076;2023-02-28T09:32:43;5.68;;;2.30;;
37647;SDS011;23490;53.656;10.076;2023-02-28T09:35:16;5.50;;;2.30;;
37647;SDS011;23490;53.656;10.076;2023-02-28T09:37:46;5.38;;;2.50;;
37647;SDS011;23490;53.656;10.076;2023-02-28T09:40:12;6.25;;;2.17;;
37647;SDS011;23490;53.656;10.076;2023-02-28T09:42:39;4.43;;;1.92;;
37647;SDS011;23490;53.656;10.076;2023-02-28T09:45:07;5.00;;;1.65;;
37647;SDS011;23490;53.656;10.076;2023-02-28T09:47:44;4.47;;;1.77;;
37647;SDS011;23490;53.656;10.076;2023-02-28T09:50:16;4.47;;;1.98;;
37647;SDS011;23490;53.656;10.076;2023-02-28T09:52:48;5.68;;;1.80;;
37647;SDS011;23490;53.656;10.076;2023-02-28T09:55:22;5.53;;;2.03;;
37647;SDS011;23490;53.656;10.076;2023-02-28T09:57:54;7.35;;;1.65;;
37647;SDS011;23490;53.656;10.076;2023-02-28T10:00:25;4.72;;;1.77;;
37647;SDS011;23490;53.656;10.076;2023-02-28T10:05:33;4.05;;;1.92;;
37647;SDS011;23490;53.656;10.076;2023-02-28T10:11:02;5.25;;;1.80;;
37647;SDS011;23490;53.656;10.076;2023-02-28T10:16:46;4.25;;;1.55;;
37647;SDS011;23490;53.656;10.076;2023-02-28T10:24:30;4.10;;;1.50;;
37647;SDS011;23490;53.656;10.076;2023-02-28T10:27:00;4.43;;;1.80;;
37647;SDS011;23490;53.656;10.076;2023-02-28T10:29:46;4.25;;;1.67;;
37647;SDS011;23490;53.656;10.076;2023-02-28T10:32:14;3.90;;;1.67;;
37647;SDS011;23490;53.656;10.076;2023-02-28T10:34:42;5.23;;;1.73;;
37647;SDS011;23490;53.656;10.076;2023-02-28T10:37:07;4.40;;;1.83;;
37647;SDS011;23490;53.656;10.076;2023-02-28T10:42:18;5.10;;;1.88;;
37647;SDS011;23490;53.656;10.076;2023-02-28T10:44:47;3.72;;;1.60;;
37647;SDS011;23490;53.656;10.076;2023-02-28T10:47:14;2.75;;;1.38;;
37647;SDS011;23490;53.656;10.076;2023-02-28T10:52:12;3.75;;;1.83;;
37647;SDS011;23490;53.656;10.076;2023-02-28T10:54:37;3.17;;;1.35;;
37647;SDS011;23490;53.656;10.076;2023-02-28T10:57:07;3.70;;;1.75;;
37647;SDS011;23490;53.656;10.076;2023-02-28T10:59:42;2.60;;;1.55;;
37647;SDS011;23490;53.656;10.076;2023-02-28T11:04:59;5.20;;;2.00;;
37647;SDS011;23490;53.656;10.076;2023-02-28T11:07:25;3.80;;;2.00;;
37647;SDS011;23490;53.656;10.076;2023-02-28T11:09:52;2.88;;;1.65;;
37647;SDS011;23490;53.656;10.076;2023-02-28T11:12:23;2.28;;;1.45;;
37647;SDS011;23490;53.656;10.076;2023-02-28T11:14:52;2.50;;;1.50;;
37647;SDS011;23490;53.656;10.076;2023-02-28T11:17:21;3.13;;;1.40;;
37647;SDS011;23490;53.656;10.076;2023-02-28T11:19:53;4.75;;;1.63;;
37647;SDS011;23490;53.656;10.076;2023-02-28T11:22:27;3.00;;;1.70;;
37647;SDS011;23490;53.656;10.076;2023-02-28T11:24:55;3.35;;;1.70;;
37647;SDS011;23490;53.656;10.076;2023-02-28T11:29:55;3.70;;;1.60;;
37647;SDS011;23490;53.656;10.076;2023-02-28T11:32:22;3.08;;;1.70;;
37647;SDS011;23490;53.656;10.076;2023-02-28T11:35:02;6.60;;;1.90;;
37647;SDS011;23490;53.656;10.076;2023-02-28T11:37:28;4.03;;;1.65;;
37647;SDS011;23490;53.656;10.076;2023-02-28T11:39:56;4.72;;;1.80;;
37647;SDS011;23490;53.656;10.076;2023-02-28T11:42:23;3.22;;;1.60;;
37647;SDS011;23490;53.656;10.076;2023-02-28T11:47:49;3.47;;;1.60;;
37647;SDS011;23490;53.656;10.076;2023-02-28T11:52:55;3.22;;;1.67;;
37647;SDS011;23490;53.656;10.076;2023-02-28T11:55:38;4.15;;;1.40;;
37647;SDS011;23490;53.656;10.076;2023-02-28T12:03:44;3.25;;;1.77;;
37647;SDS011;23490;53.656;10.076;2023-02-28T12:06:44;3.63;;;1.45;;
37647;SDS011;23490;53.656;10.076;2023-02-28T12:14:55;3.50;;;1.58;;
37647;SDS011;23490;53.656;10.076;2023-02-28T12:20:38;3.47;;;1.60;;
37647;SDS011;23490;53.656;10.076;2023-02-28T12:25:56;3.20;;;1.40;;
37647;SDS011;23490;53.656;10.076;2023-02-28T12:28:35;3.83;;;1.90;;
37647;SDS011;23490;53.656;10.076;2023-02-28T12:31:14;3.55;;;1.50;;
37647;SDS011;23490;53.656;10.076;2023-02-28T12:33:46;3.35;;;1.50;;
37647;SDS011;23490;53.656;10.076;2023-02-28T12:36:16;3.88;;;1.42;;
37647;SDS011;23490;53.656;10.076;2023-02-28T12:38:54;4.18;;;1.73;;
37647;SDS011;23490;53.656;10.076;2023-02-28T12:41:36;3.47;;;1.67;;
37647;SDS011;23490;53.656;10.076;2023-02-28T12:44:15;4.32;;;1.73;;
37647;SDS011;23490;53.656;10.076;2023-02-28T12:46:50;4.82;;;2.03;;
37647;SDS011;23490;53.656;10.076;2023-02-28T12:49:21;5.40;;;1.23;;
37647;SDS011;23490;53.656;10.076;2023-02-28T12:51:50;6.20;;;1.90;;
37647;SDS011;23490;53.656;10.076;2023-02-28T12:54:25;3.45;;;1.67;;
37647;SDS011;23490;53.656;10.076;2023-02-28T12:57:00;3.50;;;1.38;;
37647;SDS011;23490;53.656;10.076;2023-02-28T12:59:51;3.00;;;1.50;;
37647;SDS011;23490;53.656;10.076;2023-02-28T13:02:40;4.07;;;1.70;;
37647;SDS011;23490;53.656;10.076;2023-02-28T13:10:53;5.93;;;1.42;;
37647;SDS011;23490;53.656;10.076;2023-02-28T13:13:23;3.63;;;1.70;;
37647;SDS011;23490;53.656;10.076;2023-02-28T13:16:00;2.83;;;1.63;;
37647;SDS011;23490;53.656;10.076;2023-02-28T13:21:04;2.97;;;1.80;;
37647;SDS011;23490;53.656;10.076;2023-02-28T13:23:56;5.97;;;2.22;;
37647;SDS011;23490;53.656;10.076;2023-02-28T13:31:27;3.92;;;1.90;;
37647;SDS011;23490;53.656;10.076;2023-02-28T13:36:30;4.32;;;1.67;;
37647;SDS011;23490;53.656;10.076;2023-02-28T13:39:44;3.65;;;1.65;;
37647;SDS011;23490;53.656;10.076;2023-02-28T13:47:36;2.75;;;1.48;;
37647;SDS011;23490;53.656;10.076;2023-02-28T13:50:22;3.97;;;1.50;;
37647;SDS011;23490;53.656;10.076;2023-02-28T13:58:41;2.17;;;1.40;;
37647;SDS011;23490;53.656;10.076;2023-02-28T14:07:03;3.03;;;1.00;;
37647;SDS011;23490;53.656;10.076;2023-02-28T14:09:29;2.53;;;1.05;;
37647;SDS011;23490;53.656;10.076;2023-02-28T14:12:49;4.03;;;1.60;;
37647;SDS011;23490;53.656;10.076;2023-02-28T14:15:04;3.88;;;1.40;;
37647;SDS011;23490;53.656;10.076;2023-02-28T14:17:53;4.07;;;1.60;;
37647;SDS011;23490;53.656;10.076;2023-02-28T14:20:20;5.75;;;1.27;;
37647;SDS011;23490;53.656;10.076;2023-02-28T14:22:51;2.72;;;1.40;;
37647;SDS011;23490;53.656;10.076;2023-02-28T14:36:08;2.00;;;1.20;;
37647;SDS011;23490;53.656;10.076;2023-02-28T14:38:49;2.80;;;1.50;;
37647;SDS011;23490;53.656;10.076;2023-02-28T14:41:28;2.97;;;1.60;;
37647;SDS011;23490;53.656;10.076;2023-02-28T14:43:57;3.42;;;1.65;;
37647;SDS011;23490;53.656;10.076;2023-02-28T14:46:28;2.47;;;1.40;;
37647;SDS011;23490;53.656;10.076;2023-02-28T14:49:01;2.83;;;1.40;;
37647;SDS011;23490;53.656;10.076;2023-02-28T14:51:29;2.38;;;1.23;;
37647;SDS011;23490;53.656;10.076;2023-02-28T14:53:59;4.05;;;1.65;;
37647;SDS011;23490;53.656;10.076;2023-02-28T14:56:28;2.63;;;1.50;;
37647;SDS011;23490;53.656;10.076;2023-02-28T14:58:59;3.97;;;1.80;;
37647;SDS011;23490;53.656;10.076;2023-02-28T15:01:25;2.70;;;1.50;;
37647;SDS011;23490;53.656;10.076;2023-02-28T15:03:58;4.68;;;1.60;;
37647;SDS011;23490;53.656;10.076;2023-02-28T15:06:29;3.28;;;1.50;;
37647;SDS011;23490;53.656;10.076;2023-02-28T15:11:41;3.38;;;1.52;;
37647;SDS011;23490;53.656;10.076;2023-02-28T15:14:20;3.42;;;1.95;;
37647;SDS011;23490;53.656;10.076;2023-02-28T15:16:48;3.85;;;1.73;;
37647;SDS011;23490;53.656;10.076;2023-02-28T15:19:24;3.65;;;2.10;;
37647;SDS011;23490;53.656;10.076;2023-02-28T15:22:01;3.75;;;2.03;;
37647;SDS011;23490;53.656;10.076;2023-02-28T15:24:35;5.07;;;2.22;;
37647;SDS011;23490;53.656;10.076;2023-02-28T15:27:05;3.72;;;1.65;;
37647;SDS011;23490;53.656;10.076;2023-02-28T15:29:42;5.57;;;2.40;;
37647;SDS011;23490;53.656;10.076;2023-02-28T15:32:23;5.10;;;2.10;;
37647;SDS011;23490;53.656;10.076;2023-02-28T15:35:17;4.70;;;2.40;;
37647;SDS011;23490;53.656;10.076;2023-02-28T15:40:17;4.55;;;2.17;;
37647;SDS011;23490;53.656;10.076;2023-02-28T15:43:04;4.47;;;2.35;;
37647;SDS011;23490;53.656;10.076;2023-02-28T15:45:38;4.15;;;2.30;;
37647;SDS011;23490;53.656;10.076;2023-02-28T15:48:20;5.78;;;2.20;;
37647;SDS011;23490;53.656;10.076;2023-02-28T15:50:51;4.75;;;2.00;;
37647;SDS011;23490;53.656;10.076;2023-02-28T15:53:23;3.92;;;1.85;;
37647;SDS011;23490;53.656;10.076;2023-02-28T15:56:01;4.47;;;2.22;;
37647;SDS011;23490;53.656;10.076;2023-02-28T15:58:28;4.50;;;2.00;;
37647;SDS011;23490;53.656;10.076;2023-02-28T16:01:03;5.80;;;2.35;;
37647;SDS011;23490;53.656;10.076;2023-02-28T16:03:37;4.20;;;2.10;;
37647;SDS011;23490;53.656;10.076;2023-02-28T16:06:12;3.78;;;2.00;;
37647;SDS011;23490;53.656;10.076;2023-02-28T16:08:51;4.65;;;2.42;;
37647;SDS011;23490;53.656;10.076;2023-02-28T16:11:18;4.72;;;2.38;;
37647;SDS011;23490;53.656;10.076;2023-02-28T16:13:45;4.95;;;2.65;;
37647;SDS011;23490;53.656;10.076;2023-02-28T16:16:15;5.97;;;2.67;;
37647;SDS011;23490;53.656;10.076;2023-02-28T16:18:42;6.78;;;2.70;;
37647;SDS011;23490;53.656;10.076;2023-02-28T16:21:08;5.50;;;2.30;;
37647;SDS011;23490;53.656;10.076;2023-02-28T16:23:34;5.30;;;2.53;;
37647;SDS011;23490;53.656;10.076;2023-02-28T16:25:59;6.82;;;2.40;;
37647;SDS011;23490;53.656;10.076;2023-02-28T16:28:29;5.57;;;2.70;;
37647;SDS011;23490;53.656;10.076;2023-02-28T16:30:57;5.03;;;2.47;;
37647;SDS011;23490;53.656;10.076;2023-02-28T16:33:25;3.67;;;2.10;;
37647;SDS011;23490;53.656;10.076;2023-02-28T16:35:50;5.18;;;2.42;;
37647;SDS011;23490;53.656;10.076;2023-02-28T16:38:15;6.97;;;2.25;;
37647;SDS011;23490;53.656;10.076;2023-02-28T16:40:41;6.07;;;2.45;;
37647;SDS011;23490;53.656;10.076;2023-02-28T16:43:12;5.82;;;2.60;;
37647;SDS011;23490;53.656;10.076;2023-02-28T16:45:41;4.97;;;2.30;;
37647;SDS011;23490;53.656;10.076;2023-02-28T16:48:07;3.95;;;2.22;;
37647;SDS011;23490;53.656;10.076;2023-02-28T16:50:38;5.60;;;2.28;;
37647;SDS011;23490;53.656;10.076;2023-02-28T16:53:04;5.13;;;2.70;;